createdAt,value
2019-02-25T00:01:25.317Z,78.60
2019-02-25T00:04:06.846Z,78.90
2019-02-25T00:06:46.595Z,78.80
2019-02-25T00:09:26.657Z,79.10
2019-02-25T00:12:06.789Z,79.10
2019-02-25T00:14:46.608Z,78.70
2019-02-25T00:17:26.620Z,78.60
2019-02-25T00:20:06.780Z,78.90
2019-02-25T00:22:47.080Z,78.60
2019-02-25T00:25:26.879Z,78.80
2019-02-25T00:28:06.888Z,78.80
2019-02-25T00:30:47.027Z,78.80
2019-02-25T00:33:27.348Z,78.80
2019-02-25T00:36:07.241Z,78.60
2019-02-25T00:38:47.268Z,78.60
2019-02-25T00:41:27.568Z,78.70
2019-02-25T00:44:07.704Z,79.10
2019-02-25T00:46:47.870Z,78.90
2019-02-25T00:49:27.945Z,79.00
2019-02-25T00:52:08.130Z,78.70
2019-02-25T00:54:48.353Z,78.90
2019-02-25T00:57:28.442Z,79.00
2019-02-25T01:00:08.508Z,78.90
2019-02-25T01:02:48.777Z,79.00
2019-02-25T01:05:28.836Z,78.90
2019-02-25T01:08:09.053Z,78.90
2019-02-25T01:10:49.076Z,78.60
2019-02-25T01:13:29.240Z,78.80
2019-02-25T01:19:21.564Z,79.50
2019-02-25T01:22:01.553Z,78.80
2019-02-25T01:24:42.144Z,78.50
2019-02-25T01:27:22.204Z,78.00
2019-02-25T01:30:02.257Z,78.00
2019-02-25T01:32:42.490Z,78.10
2019-02-25T01:35:22.360Z,78.30
2019-02-25T01:38:02.487Z,78.40
2019-02-25T01:40:42.668Z,78.80
2019-02-25T01:45:43.992Z,78.60
2019-02-25T01:48:31.004Z,78.40
2019-02-25T01:51:01.009Z,78.10
2019-02-25T01:53:28.599Z,78.40
2019-02-25T01:56:15.637Z,78.40
2019-02-25T01:58:56.043Z,78.60
2019-02-25T02:01:36.174Z,78.70
2019-02-25T02:04:16.477Z,78.70
2019-02-25T02:06:56.477Z,78.70
2019-02-25T02:09:37.209Z,78.90
2019-02-25T02:12:16.798Z,79.10
2019-02-25T02:14:57.060Z,79.10
2019-02-25T02:17:37.109Z,79.50
2019-02-25T02:20:17.918Z,79.90
2019-02-25T02:22:58.208Z,79.70
2019-02-25T02:25:38.593Z,79.90
2019-02-25T02:28:18.927Z,79.90
2019-02-25T02:30:59.084Z,80.00
2019-02-25T02:33:39.124Z,80.40
2019-02-25T02:36:19.179Z,80.60
2019-02-25T02:38:59.481Z,81.30
2019-02-25T02:41:39.641Z,80.20
2019-02-25T02:44:19.656Z,80.90
2019-02-25T02:46:59.830Z,81.00
2019-02-25T02:49:39.995Z,81.10
2019-02-25T02:52:20.261Z,81.10
2019-02-25T02:55:00.542Z,81.00
2019-02-25T02:57:40.710Z,81.20
2019-02-25T03:00:20.827Z,81.30
2019-02-25T03:03:00.935Z,81.30
2019-02-25T03:05:41.192Z,81.30
2019-02-25T03:08:21.452Z,80.90
2019-02-25T03:11:01.415Z,81.60
2019-02-25T03:13:41.676Z,81.50
2019-02-25T03:16:21.780Z,81.60
2019-02-25T03:19:01.780Z,82.30
2019-02-25T03:21:42.004Z,81.50
2019-02-25T03:24:25.395Z,81.90
2019-02-25T03:27:05.576Z,82.00
2019-02-25T03:29:45.187Z,82.00
2019-02-25T03:32:25.129Z,82.40
2019-02-25T03:35:05.447Z,82.40
2019-02-25T03:37:45.488Z,82.70
2019-02-25T03:40:25.675Z,82.60
2019-02-25T03:43:05.872Z,82.60
2019-02-25T03:45:45.999Z,83.30
2019-02-25T03:48:26.292Z,83.70
2019-02-25T03:51:07.930Z,84.00
2019-02-25T03:53:48.322Z,83.80
2019-02-25T03:56:28.670Z,84.00
2019-02-25T03:59:09.138Z,83.60
2019-02-25T04:01:49.325Z,83.80
2019-02-25T04:04:29.827Z,83.50
2019-02-25T04:10:22.124Z,83.70
2019-02-25T04:13:02.175Z,84.00
2019-02-25T04:15:44.400Z,83.90
2019-02-25T04:18:24.305Z,83.80
2019-02-25T04:21:04.409Z,83.90
2019-02-25T04:23:44.593Z,83.90
2019-02-25T04:26:12.664Z,84.20
2019-02-25T04:28:59.786Z,84.30
2019-02-25T04:31:40.184Z,84.20
2019-02-25T04:34:20.177Z,84.50
2019-02-25T04:37:00.272Z,84.90
2019-02-25T04:39:40.461Z,85.20
2019-02-25T04:42:20.436Z,84.50
2019-02-25T04:45:01.001Z,85.40
2019-02-25T04:47:40.906Z,85.40
2019-02-25T04:50:21.196Z,85.20
2019-02-25T04:53:01.651Z,85.80
2019-02-25T04:55:41.478Z,85.80
2019-02-25T04:58:21.458Z,85.90
2019-02-25T05:01:02.160Z,85.60
2019-02-25T05:03:41.961Z,85.80
2019-02-25T05:06:22.660Z,85.90
2019-02-25T05:09:03.340Z,85.90
2019-02-25T05:11:43.195Z,86.30
2019-02-25T05:14:23.213Z,86.20
2019-02-25T05:17:03.498Z,86.30
2019-02-25T05:19:43.661Z,86.80
2019-02-25T05:22:23.709Z,86.40
2019-02-25T05:25:03.898Z,86.70
2019-02-25T05:27:44.215Z,86.50
2019-02-25T05:30:24.455Z,86.80
2019-02-25T05:33:04.946Z,86.40
2019-02-25T05:35:45.127Z,87.10
2019-02-25T05:38:25.157Z,87.00
2019-02-25T05:41:05.388Z,87.30
2019-02-25T05:43:45.781Z,87.00
2019-02-25T05:46:25.825Z,87.40
2019-02-25T05:49:05.918Z,87.10
2019-02-25T05:51:46.123Z,87.40
2019-02-25T05:54:26.305Z,87.80
2019-02-25T05:57:06.479Z,87.80
2019-02-25T05:59:47.582Z,87.60
2019-02-25T06:02:28.041Z,87.40
2019-02-25T06:05:07.967Z,88.30
2019-02-25T06:07:47.985Z,88.20
2019-02-25T06:10:28.133Z,88.30
2019-02-25T06:13:08.390Z,88.00
2019-02-25T06:15:48.496Z,88.10
2019-02-25T06:18:29.014Z,88.20
2019-02-25T06:21:08.767Z,88.20
2019-02-25T06:23:48.765Z,88.20
2019-02-25T06:26:28.981Z,88.00
2019-02-25T06:29:09.269Z,88.30
2019-02-25T06:31:49.394Z,88.40
2019-02-25T06:34:32.831Z,88.30
2019-02-25T06:37:12.633Z,88.20
2019-02-25T06:39:52.623Z,87.90
2019-02-25T06:42:32.943Z,87.90
2019-02-25T06:45:13.074Z,87.80
2019-02-25T06:47:53.339Z,88.80
2019-02-25T06:50:33.492Z,87.80
2019-02-25T06:53:13.931Z,87.90
2019-02-25T06:55:41.758Z,88.10
2019-02-25T06:58:28.914Z,88.10
2019-02-25T07:01:16.057Z,87.80
2019-02-25T07:04:21.052Z,87.90
2019-02-25T07:07:07.207Z,87.50
2019-02-25T07:10:07.149Z,87.80
2019-02-25T07:13:07.096Z,86.10
2019-02-25T07:16:06.108Z,85.10
2019-02-25T07:19:05.385Z,84.40
2019-02-25T07:22:00.756Z,84.10
2019-02-25T07:25:00.299Z,83.50
2019-02-25T07:30:31.388Z,83.10
2019-02-25T07:36:43.662Z,83.30
2019-02-25T07:39:46.140Z,83.30
2019-02-25T07:42:45.275Z,81.90
2019-02-25T07:45:45.223Z,79.60
2019-02-25T07:48:44.441Z,75.90
2019-02-25T07:51:46.642Z,71.60
2019-02-25T07:54:52.224Z,69.30
2019-02-25T07:57:57.530Z,66.40
2019-02-25T08:00:46.175Z,63.90
2019-02-25T08:03:45.509Z,59.70
2019-02-25T08:06:37.328Z,57.30
2019-02-25T08:12:44.681Z,53.50
2019-02-25T08:15:32.840Z,52.20
2019-02-25T08:18:32.424Z,51.00
2019-02-25T08:21:31.637Z,48.70
2019-02-25T08:24:30.851Z,48.10
2019-02-25T08:27:24.698Z,46.90
2019-02-25T08:30:14.848Z,45.50
2019-02-25T08:33:14.148Z,44.60
2019-02-25T08:36:11.852Z,42.90
2019-02-25T08:39:06.214Z,42.10
2019-02-25T08:42:05.876Z,41.30
2019-02-25T08:44:57.589Z,39.60
2019-02-25T08:47:57.084Z,38.80
2019-02-25T08:50:36.909Z,39.00
2019-02-25T08:53:17.236Z,37.90
2019-02-25T08:55:58.331Z,37.70
2019-02-25T08:58:38.350Z,36.80
2019-02-25T09:01:18.649Z,37.00
2019-02-25T09:03:58.800Z,36.20
2019-02-25T09:06:39.140Z,36.90
2019-02-25T09:09:19.096Z,36.60
2019-02-25T09:11:59.220Z,36.20
2019-02-25T09:14:39.284Z,37.00
2019-02-25T09:17:19.557Z,36.60
2019-02-25T09:19:59.648Z,35.90
2019-02-25T09:22:39.605Z,35.40
2019-02-25T09:25:19.848Z,35.00
2019-02-25T09:28:00.013Z,34.80
2019-02-25T09:30:40.134Z,33.30
2019-02-25T09:33:20.165Z,33.00
2019-02-25T09:36:00.251Z,32.10
2019-02-25T09:38:40.404Z,32.30
2019-02-25T09:41:29.476Z,31.10
2019-02-25T09:44:02.698Z,30.00
2019-02-25T09:46:42.775Z,29.80
2019-02-25T09:49:22.940Z,29.90
2019-02-25T09:52:03.105Z,29.80
2019-02-25T09:57:56.168Z,29.40
2019-02-25T10:00:35.922Z,29.40
2019-02-25T10:03:03.680Z,29.50
2019-02-25T10:05:50.694Z,28.80
2019-02-25T10:08:30.606Z,28.50
2019-02-25T10:11:10.839Z,28.80
2019-02-25T10:13:51.928Z,28.80
2019-02-25T10:16:31.880Z,28.70
2019-02-25T10:22:10.723Z,28.30
2019-02-25T10:24:50.724Z,28.30
2019-02-25T10:27:31.118Z,27.60
2019-02-25T10:30:11.109Z,28.00
2019-02-25T10:32:51.113Z,27.80
2019-02-25T10:35:31.277Z,27.70
2019-02-25T10:38:11.737Z,27.10
2019-02-25T10:40:53.882Z,26.70
2019-02-25T10:43:34.600Z,26.70
2019-02-25T10:46:17.563Z,25.80
2019-02-25T10:48:59.279Z,25.80
2019-02-25T10:51:41.206Z,25.70
2019-02-25T10:54:25.319Z,25.60
2019-02-25T10:57:05.689Z,25.20
2019-02-25T10:59:45.909Z,25.20
2019-02-25T11:02:25.997Z,25.10
2019-02-25T11:05:05.960Z,24.60
2019-02-25T11:07:45.981Z,25.30
2019-02-25T11:10:34.852Z,25.20
2019-02-25T11:13:15.184Z,25.20
2019-02-25T11:15:55.478Z,24.80
2019-02-25T11:18:35.529Z,25.20
2019-02-25T11:21:15.476Z,25.30
2019-02-25T11:23:55.433Z,25.50
2019-02-25T11:26:35.771Z,25.20
2019-02-25T11:29:16.355Z,25.10
2019-02-25T11:31:56.743Z,24.80
2019-02-25T11:34:37.711Z,24.50
2019-02-25T11:37:19.713Z,24.60
2019-02-25T11:40:01.846Z,24.40
2019-02-25T11:42:42.381Z,24.10
2019-02-25T11:48:23.705Z,23.80
2019-02-25T11:51:04.041Z,23.70
2019-02-25T11:53:43.753Z,23.10
2019-02-25T11:56:23.737Z,23.00
2019-02-25T11:59:03.941Z,23.10
2019-02-25T12:01:44.917Z,23.00
2019-02-25T12:04:24.956Z,22.40
2019-02-25T12:07:07.296Z,22.20
2019-02-25T12:09:34.915Z,22.00
2019-02-25T12:12:21.973Z,21.90
2019-02-25T12:15:09.874Z,22.00
2019-02-25T12:17:49.853Z,21.40
2019-02-25T12:20:30.048Z,21.80
2019-02-25T12:22:57.700Z,21.30
2019-02-25T12:25:44.789Z,22.10
2019-02-25T12:28:25.126Z,22.00
2019-02-25T12:31:05.089Z,21.70
2019-02-25T12:33:45.056Z,22.20
2019-02-25T12:36:25.057Z,22.20
2019-02-25T12:39:05.172Z,21.20
2019-02-25T12:41:45.377Z,21.30
2019-02-25T12:44:13.236Z,21.30
2019-02-25T12:47:00.283Z,21.20
2019-02-25T12:49:40.575Z,21.30
2019-02-25T12:52:20.767Z,20.20
2019-02-25T12:55:01.005Z,20.10
2019-02-25T12:57:40.953Z,20.10
2019-02-25T13:00:21.570Z,20.10
2019-02-25T13:03:01.213Z,19.60
2019-02-25T13:05:41.328Z,20.50
2019-02-25T13:08:21.409Z,20.60
2019-02-25T13:11:01.596Z,20.50
2019-02-25T13:13:41.881Z,20.20
2019-02-25T13:16:22.176Z,19.80
2019-02-25T13:21:43.912Z,20.10
2019-02-25T13:24:24.209Z,20.00
2019-02-25T13:27:05.882Z,19.20
2019-02-25T13:29:46.640Z,19.30
2019-02-25T13:32:26.558Z,19.20
2019-02-25T13:35:06.709Z,19.40
2019-02-25T13:37:46.936Z,19.10
2019-02-25T13:40:27.107Z,18.90
2019-02-25T13:42:54.731Z,18.40
2019-02-25T13:45:41.929Z,18.70
2019-02-25T13:48:21.577Z,18.70
2019-02-25T13:51:01.881Z,18.40
2019-02-25T13:53:42.133Z,18.20
2019-02-25T13:56:22.151Z,18.20
2019-02-25T13:59:02.353Z,18.00
2019-02-25T14:01:42.277Z,18.20
2019-02-25T14:04:22.310Z,18.00
2019-02-25T14:07:02.161Z,18.10
2019-02-25T14:09:42.181Z,17.50
2019-02-25T14:12:22.314Z,18.50
2019-02-25T14:15:02.436Z,18.20
2019-02-25T14:17:42.655Z,18.10
2019-02-25T14:20:22.985Z,18.20
2019-02-25T14:23:03.089Z,18.10
2019-02-25T14:25:43.261Z,18.10
2019-02-25T14:28:23.573Z,18.30
2019-02-25T14:31:03.757Z,17.90
2019-02-25T14:33:44.157Z,17.70
2019-02-25T14:36:24.141Z,17.90
2019-02-25T14:39:04.810Z,17.70
2019-02-25T14:41:44.573Z,17.70
2019-02-25T14:44:26.970Z,17.70
2019-02-25T14:47:19.306Z,17.80
2019-02-25T14:49:49.209Z,17.90
2019-02-25T14:52:31.752Z,17.90
2019-02-25T14:55:13.193Z,17.90
2019-02-25T14:57:55.161Z,17.70
2019-02-25T15:00:38.038Z,17.60
2019-02-25T15:03:18.195Z,17.80
2019-02-25T15:05:50.659Z,18.00
2019-02-25T15:08:38.786Z,18.10
2019-02-25T15:11:19.281Z,18.00
2019-02-25T15:13:46.872Z,18.30
2019-02-25T15:16:14.480Z,18.50
2019-02-25T15:19:04.790Z,18.70
2019-02-25T15:21:47.609Z,18.60
2019-02-25T15:24:29.235Z,19.00
2019-02-25T15:27:11.011Z,19.20
2019-02-25T15:29:52.648Z,19.20
2019-02-25T15:32:20.307Z,19.20
2019-02-25T15:35:08.060Z,19.40
2019-02-25T15:37:56.030Z,19.60
2019-02-25T15:40:37.476Z,19.70
2019-02-25T15:43:20.328Z,19.40
2019-02-25T15:45:59.661Z,19.30
2019-02-25T15:48:41.549Z,19.60
2019-02-25T15:51:23.059Z,19.70
2019-02-25T15:54:03.755Z,20.30
2019-02-25T15:56:47.914Z,20.50
2019-02-25T15:59:32.013Z,21.00
2019-02-25T16:02:13.487Z,21.40
2019-02-25T16:04:53.895Z,21.50
2019-02-25T16:07:35.413Z,22.00
2019-02-25T16:10:16.364Z,22.20
2019-02-25T16:12:44.259Z,22.60
2019-02-25T16:15:31.269Z,22.70
2019-02-25T16:18:18.424Z,23.00
2019-02-25T16:20:59.705Z,23.40
2019-02-25T16:23:41.315Z,23.70
2019-02-25T16:26:21.065Z,24.00
2019-02-25T16:29:06.012Z,24.20
2019-02-25T16:31:43.695Z,24.60
2019-02-25T16:34:23.692Z,24.90
2019-02-25T16:37:05.592Z,25.40
2019-02-25T16:39:46.013Z,25.70
2019-02-25T16:42:28.082Z,26.00
2019-02-25T16:45:09.507Z,26.50
2019-02-25T16:47:49.674Z,27.30
2019-02-25T16:50:29.722Z,28.00
2019-02-25T16:53:10.884Z,28.80
2019-02-25T16:55:52.152Z,29.80
2019-02-25T16:58:33.726Z,30.40
2019-02-25T17:01:14.499Z,31.60
2019-02-25T17:03:54.747Z,32.80
2019-02-25T17:06:35.092Z,33.60
2019-02-25T17:09:20.303Z,34.90
2019-02-25T17:12:02.291Z,36.20
2019-02-25T17:14:42.760Z,37.50
2019-02-25T17:17:24.782Z,38.80
2019-02-25T17:20:03.089Z,39.40
2019-02-25T17:22:50.276Z,40.60
2019-02-25T17:25:31.567Z,41.30
2019-02-25T17:28:15.241Z,42.10
2019-02-25T17:30:42.934Z,43.20
2019-02-25T17:33:32.753Z,44.20
2019-02-25T17:36:14.714Z,45.00
2019-02-25T17:38:55.189Z,46.10
2019-02-25T17:41:36.175Z,46.00
2019-02-25T17:44:17.947Z,47.10
2019-02-25T17:47:00.195Z,48.10
2019-02-25T17:49:43.080Z,48.30
2019-02-25T17:52:23.876Z,49.00
2019-02-25T17:55:06.124Z,50.20
2019-02-25T17:57:46.009Z,50.20
2019-02-25T18:03:08.788Z,52.10
2019-02-25T18:05:56.846Z,51.80
2019-02-25T18:08:25.421Z,51.90
2019-02-25T18:11:15.735Z,52.60
2019-02-25T18:13:57.388Z,53.10
2019-02-25T18:16:39.186Z,53.20
2019-02-25T18:19:20.864Z,53.60
2019-02-25T18:22:02.141Z,53.80
2019-02-25T18:24:29.888Z,55.10
2019-02-25T18:30:12.469Z,55.20
2019-02-25T18:32:53.507Z,55.70
2019-02-25T18:35:36.876Z,55.90
2019-02-25T18:38:17.095Z,56.20
2019-02-25T18:40:58.671Z,56.50
2019-02-25T18:43:39.373Z,56.70
2019-02-25T18:46:21.247Z,56.70
2019-02-25T18:49:03.106Z,57.10
2019-02-25T18:51:43.912Z,56.70
2019-02-25T18:54:25.467Z,57.70
2019-02-25T18:57:07.528Z,57.00
2019-02-25T18:59:47.682Z,57.60
2019-02-25T19:02:27.777Z,57.50
2019-02-25T19:05:10.637Z,57.90
2019-02-25T19:07:51.281Z,58.20
2019-02-25T19:10:32.722Z,58.70
2019-02-25T19:13:13.315Z,59.20
2019-02-25T19:15:55.303Z,59.70
2019-02-25T19:18:40.796Z,59.90
2019-02-25T19:21:19.208Z,60.10
2019-02-25T19:23:59.213Z,60.30
2019-02-25T19:26:40.850Z,61.40
2019-02-25T19:29:21.810Z,62.10
2019-02-25T19:32:03.698Z,63.20
2019-02-25T19:34:43.881Z,63.40
2019-02-25T19:37:28.895Z,64.00
2019-02-25T19:40:11.844Z,64.60
2019-02-25T19:42:51.343Z,65.10
2019-02-25T19:45:30.371Z,65.40
2019-02-25T19:48:10.674Z,65.70
2019-02-25T19:50:52.167Z,66.10
2019-02-25T19:53:35.825Z,66.10
2019-02-25T19:56:14.915Z,65.90
2019-02-25T19:58:55.883Z,65.70
2019-02-25T20:01:39.244Z,65.80
2019-02-25T20:04:19.368Z,66.00
2019-02-25T20:07:00.812Z,66.10
2019-02-25T20:09:41.327Z,65.70
2019-02-25T20:12:21.720Z,65.80
2019-02-25T20:15:01.978Z,65.90
2019-02-25T20:17:43.958Z,66.20
2019-02-25T20:20:13.345Z,66.50
2019-02-25T20:23:02.125Z,66.20
2019-02-25T20:25:46.506Z,66.70
2019-02-25T20:28:26.798Z,65.80
2019-02-25T20:31:08.340Z,66.60
2019-02-25T20:33:48.612Z,66.90
2019-02-25T20:36:30.549Z,66.90
2019-02-25T20:39:10.657Z,66.40
2019-02-25T20:41:52.339Z,66.70
2019-02-25T20:44:34.779Z,66.20
2019-02-25T20:47:15.028Z,66.60
2019-02-25T20:49:56.081Z,66.60
2019-02-25T20:52:38.849Z,67.20
2019-02-25T20:55:19.417Z,66.40
2019-02-25T20:57:59.535Z,66.40
2019-02-25T21:00:42.007Z,66.40
2019-02-25T21:03:23.243Z,65.40
2019-02-25T21:06:04.321Z,66.40
2019-02-25T21:08:44.569Z,66.40
2019-02-25T21:11:26.071Z,67.00
2019-02-25T21:14:06.144Z,67.00
2019-02-25T21:16:46.678Z,67.00
2019-02-25T21:19:26.581Z,67.60
2019-02-25T21:22:08.757Z,67.50
2019-02-25T21:24:49.468Z,67.30
2019-02-25T21:27:32.424Z,67.60
2019-02-25T21:30:12.242Z,67.70
2019-02-25T21:32:54.132Z,67.80
2019-02-25T21:35:37.224Z,67.60
2019-02-25T21:38:14.242Z,67.90
2019-02-25T21:41:01.243Z,67.60
2019-02-25T21:43:43.313Z,68.20
2019-02-25T21:46:24.631Z,68.10
2019-02-25T21:49:06.624Z,68.90
2019-02-25T21:54:29.572Z,68.90
2019-02-25T21:57:09.840Z,69.30
2019-02-25T21:59:50.207Z,69.10
2019-02-25T22:02:30.062Z,69.50
2019-02-25T22:05:13.711Z,69.70
2019-02-25T22:07:54.507Z,70.20
2019-02-25T22:10:36.914Z,70.20
2019-02-25T22:13:18.365Z,70.70
2019-02-25T22:15:59.540Z,70.90
2019-02-25T22:18:41.122Z,70.80
2019-02-25T22:21:21.332Z,71.40
2019-02-25T22:24:03.715Z,71.50
2019-02-25T22:26:43.685Z,72.00
2019-02-25T22:29:23.716Z,71.90
2019-02-25T22:32:06.182Z,71.70
2019-02-25T22:34:46.049Z,72.10
2019-02-25T22:37:26.840Z,71.90
2019-02-25T22:40:10.158Z,71.80
2019-02-25T22:42:52.314Z,71.90
2019-02-25T22:45:33.104Z,71.90
2019-02-25T22:48:16.228Z,72.10
2019-02-25T22:50:57.758Z,72.00
2019-02-25T22:53:37.480Z,71.30
2019-02-25T22:56:18.251Z,71.60
2019-02-25T22:59:00.383Z,71.20
2019-02-25T23:01:41.865Z,71.90
2019-02-25T23:04:24.187Z,71.90
2019-02-25T23:07:04.298Z,72.30
2019-02-25T23:09:45.350Z,72.40
2019-02-25T23:12:27.206Z,72.20
2019-02-25T23:15:07.781Z,71.80
2019-02-25T23:17:47.928Z,71.90
2019-02-25T23:20:29.604Z,71.90
2019-02-25T23:23:10.329Z,72.30
2019-02-25T23:25:51.422Z,72.60
2019-02-25T23:28:32.712Z,72.50
2019-02-25T23:31:14.962Z,72.60
2019-02-25T23:33:55.232Z,72.90
2019-02-25T23:36:35.474Z,73.00
2019-02-25T23:39:17.726Z,73.20
2019-02-25T23:41:57.937Z,73.40
2019-02-25T23:44:37.989Z,73.70
2019-02-25T23:47:18.301Z,74.00
2019-02-25T23:49:58.476Z,74.00
2019-02-25T23:52:38.584Z,74.10
2019-02-25T23:55:19.666Z,74.30
2019-02-25T23:58:00.990Z,74.40
